sensor_id;sensor_type;location;lat;lon;timestamp;P1;durP1;ratioP1;P2;durP2;ratioP2
75971;SDS011;64651;47.540;19.088;2023-04-03T00:04:37;10.52;;;3.85;;
75971;SDS011;64651;47.540;19.088;2023-04-03T00:09:40;10.93;;;4.50;;
75971;SDS011;64651;47.540;19.088;2023-04-03T00:14:45;11.10;;;4.18;;
75971;SDS011;64651;47.540;19.088;2023-04-03T00:19:48;11.25;;;4.43;;
75971;SDS011;64651;47.540;19.088;2023-04-03T00:24:50;11.73;;;4.40;;
75971;SDS011;64651;47.540;19.088;2023-04-03T00:29:52;11.43;;;4.30;;
75971;SDS011;64651;47.540;19.088;2023-04-03T00:34:54;11.48;;;3.90;;
75971;SDS011;64651;47.540;19.088;2023-04-03T00:39:57;11.38;;;4.45;;
75971;SDS011;64651;47.540;19.088;2023-04-03T00:50:02;11.23;;;4.13;;
75971;SDS011;64651;47.540;19.088;2023-04-03T00:55:05;10.65;;;4.50;;
75971;SDS011;64651;47.540;19.088;2023-04-03T01:00:11;11.10;;;3.97;;
75971;SDS011;64651;47.540;19.088;2023-04-03T01:05:16;10.45;;;3.90;;
75971;SDS011;64651;47.540;19.088;2023-04-03T01:10:20;9.82;;;3.70;;
75971;SDS011;64651;47.540;19.088;2023-04-03T01:15:24;11.17;;;4.03;;
75971;SDS011;64651;47.540;19.088;2023-04-03T01:25:34;9.13;;;3.25;;
75971;SDS011;64651;47.540;19.088;2023-04-03T01:30:43;9.43;;;3.58;;
75971;SDS011;64651;47.540;19.088;2023-04-03T01:35:50;10.63;;;3.53;;
75971;SDS011;64651;47.540;19.088;2023-04-03T01:40:52;9.57;;;3.40;;
75971;SDS011;64651;47.540;19.088;2023-04-03T01:45:55;8.40;;;3.10;;
75971;SDS011;64651;47.540;19.088;2023-04-03T01:50:57;9.30;;;3.83;;
75971;SDS011;64651;47.540;19.088;2023-04-03T01:56:11;10.15;;;3.10;;
75971;SDS011;64651;47.540;19.088;2023-04-03T02:01:13;9.27;;;3.40;;
75971;SDS011;64651;47.540;19.088;2023-04-03T02:11:42;9.40;;;3.00;;
75971;SDS011;64651;47.540;19.088;2023-04-03T02:16:44;8.93;;;3.58;;
75971;SDS011;64651;47.540;19.088;2023-04-03T02:21:50;8.45;;;2.92;;
75971;SDS011;64651;47.540;19.088;2023-04-03T02:26:59;9.02;;;3.20;;
75971;SDS011;64651;47.540;19.088;2023-04-03T02:32:04;7.67;;;2.70;;
75971;SDS011;64651;47.540;19.088;2023-04-03T02:37:09;8.52;;;2.53;;
75971;SDS011;64651;47.540;19.088;2023-04-03T02:42:12;8.82;;;2.78;;
75971;SDS011;64651;47.540;19.088;2023-04-03T02:47:15;7.80;;;2.80;;
75971;SDS011;64651;47.540;19.088;2023-04-03T02:52:18;8.27;;;2.70;;
75971;SDS011;64651;47.540;19.088;2023-04-03T03:03:13;8.07;;;2.60;;
75971;SDS011;64651;47.540;19.088;2023-04-03T03:08:16;8.38;;;2.45;;
75971;SDS011;64651;47.540;19.088;2023-04-03T03:13:22;8.70;;;2.67;;
75971;SDS011;64651;47.540;19.088;2023-04-03T03:18:24;7.80;;;2.65;;
75971;SDS011;64651;47.540;19.088;2023-04-03T03:23:27;8.90;;;2.60;;
75971;SDS011;64651;47.540;19.088;2023-04-03T03:28:32;8.35;;;2.87;;
75971;SDS011;64651;47.540;19.088;2023-04-03T03:33:34;8.55;;;2.85;;
75971;SDS011;64651;47.540;19.088;2023-04-03T03:38:37;8.68;;;2.78;;
75971;SDS011;64651;47.540;19.088;2023-04-03T03:43:39;9.27;;;3.20;;
75971;SDS011;64651;47.540;19.088;2023-04-03T03:48:42;10.03;;;3.00;;
75971;SDS011;64651;47.540;19.088;2023-04-03T03:53:45;9.35;;;3.37;;
75971;SDS011;64651;47.540;19.088;2023-04-03T03:58:48;9.45;;;3.40;;
75971;SDS011;64651;47.540;19.088;2023-04-03T04:03:51;9.27;;;3.20;;
75971;SDS011;64651;47.540;19.088;2023-04-03T04:08:55;9.82;;;3.33;;
75971;SDS011;64651;47.540;19.088;2023-04-03T04:13:58;9.40;;;3.03;;
75971;SDS011;64651;47.540;19.088;2023-04-03T04:19:00;9.52;;;3.50;;
75971;SDS011;64651;47.540;19.088;2023-04-03T04:24:02;10.45;;;3.20;;
75971;SDS011;64651;47.540;19.088;2023-04-03T04:29:04;8.60;;;2.90;;
75971;SDS011;64651;47.540;19.088;2023-04-03T04:34:07;10.80;;;3.70;;
75971;SDS011;64651;47.540;19.088;2023-04-03T04:39:09;10.23;;;3.60;;
75971;SDS011;64651;47.540;19.088;2023-04-03T04:44:11;10.48;;;3.90;;
75971;SDS011;64651;47.540;19.088;2023-04-03T04:49:13;10.80;;;3.83;;
75971;SDS011;64651;47.540;19.088;2023-04-03T04:54:15;11.73;;;4.00;;
75971;SDS011;64651;47.540;19.088;2023-04-03T04:59:18;10.10;;;3.60;;
75971;SDS011;64651;47.540;19.088;2023-04-03T05:04:22;13.23;;;3.37;;
75971;SDS011;64651;47.540;19.088;2023-04-03T05:09:25;10.73;;;4.00;;
75971;SDS011;64651;47.540;19.088;2023-04-03T05:14:27;10.98;;;3.83;;
75971;SDS011;64651;47.540;19.088;2023-04-03T05:19:30;10.82;;;4.05;;
75971;SDS011;64651;47.540;19.088;2023-04-03T05:24:33;8.80;;;2.95;;
75971;SDS011;64651;47.540;19.088;2023-04-03T05:29:35;8.70;;;3.53;;
75971;SDS011;64651;47.540;19.088;2023-04-03T05:34:37;11.10;;;3.60;;
75971;SDS011;64651;47.540;19.088;2023-04-03T05:39:39;10.38;;;3.37;;
75971;SDS011;64651;47.540;19.088;2023-04-03T05:44:42;10.18;;;3.60;;
75971;SDS011;64651;47.540;19.088;2023-04-03T05:49:45;12.18;;;3.85;;
75971;SDS011;64651;47.540;19.088;2023-04-03T05:54:47;11.97;;;3.70;;
75971;SDS011;64651;47.540;19.088;2023-04-03T05:59:50;9.43;;;3.05;;
75971;SDS011;64651;47.540;19.088;2023-04-03T06:04:52;12.43;;;4.32;;
75971;SDS011;64651;47.540;19.088;2023-04-03T06:09:55;10.35;;;3.50;;
75971;SDS011;64651;47.540;19.088;2023-04-03T06:14:58;11.25;;;3.45;;
75971;SDS011;64651;47.540;19.088;2023-04-03T06:20:01;9.53;;;3.47;;
75971;SDS011;64651;47.540;19.088;2023-04-03T06:25:03;11.60;;;3.55;;
75971;SDS011;64651;47.540;19.088;2023-04-03T06:30:06;9.45;;;3.12;;
75971;SDS011;64651;47.540;19.088;2023-04-03T06:35:09;10.02;;;2.92;;
75971;SDS011;64651;47.540;19.088;2023-04-03T06:40:18;9.65;;;3.47;;
75971;SDS011;64651;47.540;19.088;2023-04-03T06:45:23;11.20;;;3.33;;
75971;SDS011;64651;47.540;19.088;2023-04-03T06:50:27;9.85;;;2.92;;
75971;SDS011;64651;47.540;19.088;2023-04-03T06:55:29;9.75;;;2.12;;
75971;SDS011;64651;47.540;19.088;2023-04-03T07:00:31;7.95;;;2.55;;
75971;SDS011;64651;47.540;19.088;2023-04-03T07:05:33;8.75;;;2.33;;
75971;SDS011;64651;47.540;19.088;2023-04-03T07:10:37;6.70;;;2.10;;
75971;SDS011;64651;47.540;19.088;2023-04-03T07:15:39;10.35;;;2.10;;
75971;SDS011;64651;47.540;19.088;2023-04-03T07:20:42;8.15;;;1.90;;
75971;SDS011;64651;47.540;19.088;2023-04-03T07:25:45;7.95;;;2.00;;
75971;SDS011;64651;47.540;19.088;2023-04-03T07:30:50;6.55;;;1.90;;
75971;SDS011;64651;47.540;19.088;2023-04-03T07:36:05;8.43;;;2.07;;
75971;SDS011;64651;47.540;19.088;2023-04-03T07:41:11;6.07;;;1.55;;
75971;SDS011;64651;47.540;19.088;2023-04-03T07:46:20;6.07;;;1.77;;
75971;SDS011;64651;47.540;19.088;2023-04-03T07:51:24;6.75;;;1.80;;
75971;SDS011;64651;47.540;19.088;2023-04-03T07:56:28;5.87;;;1.80;;
75971;SDS011;64651;47.540;19.088;2023-04-03T08:01:33;6.03;;;1.50;;
75971;SDS011;64651;47.540;19.088;2023-04-03T08:06:36;7.50;;;2.15;;
75971;SDS011;64651;47.540;19.088;2023-04-03T08:11:47;9.55;;;3.75;;
75971;SDS011;64651;47.540;19.088;2023-04-03T08:16:50;7.23;;;2.20;;
75971;SDS011;64651;47.540;19.088;2023-04-03T08:21:53;6.70;;;2.17;;
75971;SDS011;64651;47.540;19.088;2023-04-03T08:26:57;7.43;;;2.20;;
75971;SDS011;64651;47.540;19.088;2023-04-03T08:31:59;6.40;;;2.00;;
75971;SDS011;64651;47.540;19.088;2023-04-03T08:37:01;5.87;;;2.10;;
75971;SDS011;64651;47.540;19.088;2023-04-03T08:42:05;5.77;;;2.10;;
75971;SDS011;64651;47.540;19.088;2023-04-03T08:52:49;6.57;;;2.33;;
75971;SDS011;64651;47.540;19.088;2023-04-03T08:57:58;6.68;;;2.22;;
75971;SDS011;64651;47.540;19.088;2023-04-03T09:03:04;5.60;;;2.33;;
75971;SDS011;64651;47.540;19.088;2023-04-03T09:18:57;5.80;;;2.43;;
75971;SDS011;64651;47.540;19.088;2023-04-03T09:24:09;5.97;;;2.80;;
75971;SDS011;64651;47.540;19.088;2023-04-03T09:29:22;6.57;;;3.03;;
75971;SDS011;64651;47.540;19.088;2023-04-03T09:34:32;7.37;;;3.00;;
75971;SDS011;64651;47.540;19.088;2023-04-03T09:39:50;5.47;;;2.15;;
75971;SDS011;64651;47.540;19.088;2023-04-03T09:44:59;5.83;;;2.20;;
75971;SDS011;64651;47.540;19.088;2023-04-03T09:55:24;7.28;;;2.47;;
75971;SDS011;64651;47.540;19.088;2023-04-03T10:00:33;6.20;;;2.40;;
75971;SDS011;64651;47.540;19.088;2023-04-03T10:05:40;5.75;;;1.85;;
75971;SDS011;64651;47.540;19.088;2023-04-03T10:10:44;4.57;;;1.53;;
75971;SDS011;64651;47.540;19.088;2023-04-03T10:15:56;5.22;;;1.60;;
75971;SDS011;64651;47.540;19.088;2023-04-03T10:37:22;4.43;;;1.40;;
75971;SDS011;64651;47.540;19.088;2023-04-03T10:53:37;4.10;;;1.25;;
75971;SDS011;64651;47.540;19.088;2023-04-03T10:58:50;5.65;;;1.65;;
75971;SDS011;64651;47.540;19.088;2023-04-03T11:03:58;4.87;;;1.40;;
75971;SDS011;64651;47.540;19.088;2023-04-03T11:14:18;8.20;;;2.62;;
75971;SDS011;64651;47.540;19.088;2023-04-03T11:30:20;4.77;;;1.23;;
75971;SDS011;64651;47.540;19.088;2023-04-03T11:35:36;3.55;;;1.10;;
75971;SDS011;64651;47.540;19.088;2023-04-03T11:40:46;5.53;;;1.60;;
75971;SDS011;64651;47.540;19.088;2023-04-03T11:45:50;6.53;;;2.10;;
75971;SDS011;64651;47.540;19.088;2023-04-03T11:51:01;4.72;;;1.58;;
75971;SDS011;64651;47.540;19.088;2023-04-03T12:01:49;6.25;;;1.73;;
75971;SDS011;64651;47.540;19.088;2023-04-03T12:07:00;5.00;;;1.40;;
75971;SDS011;64651;47.540;19.088;2023-04-03T12:12:29;6.60;;;1.70;;
75971;SDS011;64651;47.540;19.088;2023-04-03T12:17:37;5.25;;;1.48;;
75971;SDS011;64651;47.540;19.088;2023-04-03T12:22:40;7.10;;;2.23;;
75971;SDS011;64651;47.540;19.088;2023-04-03T12:28:20;6.80;;;2.50;;
75971;SDS011;64651;47.540;19.088;2023-04-03T12:33:24;9.45;;;3.40;;
75971;SDS011;64651;47.540;19.088;2023-04-03T12:38:47;5.60;;;1.65;;
75971;SDS011;64651;47.540;19.088;2023-04-03T12:54:35;5.80;;;1.90;;
75971;SDS011;64651;47.540;19.088;2023-04-03T12:59:39;5.12;;;1.40;;
75971;SDS011;64651;47.540;19.088;2023-04-03T13:04:43;5.55;;;1.60;;
75971;SDS011;64651;47.540;19.088;2023-04-03T13:09:54;5.07;;;1.50;;
75971;SDS011;64651;47.540;19.088;2023-04-03T13:14:59;5.03;;;1.47;;
75971;SDS011;64651;47.540;19.088;2023-04-03T13:20:09;4.75;;;1.62;;
75971;SDS011;64651;47.540;19.088;2023-04-03T13:25:21;4.47;;;1.27;;
75971;SDS011;64651;47.540;19.088;2023-04-03T13:30:36;4.60;;;1.30;;
75971;SDS011;64651;47.540;19.088;2023-04-03T13:35:41;4.70;;;1.50;;
75971;SDS011;64651;47.540;19.088;2023-04-03T13:41:03;6.40;;;1.80;;
75971;SDS011;64651;47.540;19.088;2023-04-03T13:46:25;5.65;;;1.58;;
75971;SDS011;64651;47.540;19.088;2023-04-03T13:51:29;6.50;;;2.10;;
75971;SDS011;64651;47.540;19.088;2023-04-03T13:56:36;4.93;;;1.40;;
75971;SDS011;64651;47.540;19.088;2023-04-03T14:07:24;5.00;;;1.70;;
75971;SDS011;64651;47.540;19.088;2023-04-03T14:12:35;4.68;;;1.60;;
75971;SDS011;64651;47.540;19.088;2023-04-03T14:17:41;5.57;;;2.10;;
75971;SDS011;64651;47.540;19.088;2023-04-03T14:22:44;6.20;;;1.60;;
75971;SDS011;64651;47.540;19.088;2023-04-03T14:27:48;7.10;;;2.10;;
75971;SDS011;64651;47.540;19.088;2023-04-03T14:32:52;5.47;;;1.60;;
75971;SDS011;64651;47.540;19.088;2023-04-03T14:37:54;4.25;;;1.50;;
75971;SDS011;64651;47.540;19.088;2023-04-03T14:42:57;4.25;;;1.10;;
75971;SDS011;64651;47.540;19.088;2023-04-03T14:48:00;5.83;;;1.70;;
75971;SDS011;64651;47.540;19.088;2023-04-03T14:53:06;6.07;;;1.50;;
75971;SDS011;64651;47.540;19.088;2023-04-03T14:58:16;5.90;;;1.50;;
75971;SDS011;64651;47.540;19.088;2023-04-03T15:03:21;4.85;;;1.50;;
75971;SDS011;64651;47.540;19.088;2023-04-03T15:08:25;5.47;;;1.50;;
75971;SDS011;64651;47.540;19.088;2023-04-03T15:13:31;5.07;;;1.37;;
75971;SDS011;64651;47.540;19.088;2023-04-03T15:18:35;5.18;;;1.70;;
75971;SDS011;64651;47.540;19.088;2023-04-03T15:23:41;4.60;;;1.40;;
75971;SDS011;64651;47.540;19.088;2023-04-03T15:28:44;6.20;;;1.70;;
75971;SDS011;64651;47.540;19.088;2023-04-03T15:33:47;6.30;;;2.20;;
75971;SDS011;64651;47.540;19.088;2023-04-03T15:38:50;6.57;;;2.28;;
75971;SDS011;64651;47.540;19.088;2023-04-03T15:43:53;7.82;;;2.55;;
75971;SDS011;64651;47.540;19.088;2023-04-03T15:48:58;7.00;;;2.40;;
75971;SDS011;64651;47.540;19.088;2023-04-03T15:54:03;7.03;;;1.90;;
75971;SDS011;64651;47.540;19.088;2023-04-03T15:59:08;8.00;;;2.30;;
75971;SDS011;64651;47.540;19.088;2023-04-03T16:04:13;7.45;;;2.45;;
75971;SDS011;64651;47.540;19.088;2023-04-03T16:09:16;6.57;;;1.80;;
75971;SDS011;64651;47.540;19.088;2023-04-03T16:14:20;6.77;;;1.90;;
75971;SDS011;64651;47.540;19.088;2023-04-03T16:19:24;7.60;;;1.77;;
75971;SDS011;64651;47.540;19.088;2023-04-03T16:24:27;7.75;;;2.62;;
75971;SDS011;64651;47.540;19.088;2023-04-03T16:29:29;8.57;;;2.12;;
75971;SDS011;64651;47.540;19.088;2023-04-03T16:34:34;6.40;;;1.70;;
75971;SDS011;64651;47.540;19.088;2023-04-03T16:39:37;6.83;;;2.20;;
75971;SDS011;64651;47.540;19.088;2023-04-03T16:44:39;7.90;;;2.10;;
75971;SDS011;64651;47.540;19.088;2023-04-03T16:49:44;6.40;;;1.87;;
75971;SDS011;64651;47.540;19.088;2023-04-03T16:54:50;6.97;;;1.90;;
75971;SDS011;64651;47.540;19.088;2023-04-03T16:59:57;6.30;;;2.00;;
75971;SDS011;64651;47.540;19.088;2023-04-03T17:04:59;7.70;;;2.10;;
75971;SDS011;64651;47.540;19.088;2023-04-03T17:10:03;6.20;;;1.80;;
75971;SDS011;64651;47.540;19.088;2023-04-03T17:15:05;6.00;;;1.92;;
75971;SDS011;64651;47.540;19.088;2023-04-03T17:20:08;8.02;;;1.80;;
75971;SDS011;64651;47.540;19.088;2023-04-03T17:25:17;6.82;;;1.95;;
75971;SDS011;64651;47.540;19.088;2023-04-03T17:30:20;7.60;;;1.90;;
75971;SDS011;64651;47.540;19.088;2023-04-03T17:35:22;6.80;;;2.12;;
75971;SDS011;64651;47.540;19.088;2023-04-03T17:40:29;7.00;;;2.10;;
75971;SDS011;64651;47.540;19.088;2023-04-03T17:45:31;7.32;;;1.83;;
75971;SDS011;64651;47.540;19.088;2023-04-03T17:50:35;6.60;;;1.80;;
75971;SDS011;64651;47.540;19.088;2023-04-03T17:55:40;8.43;;;1.83;;
75971;SDS011;64651;47.540;19.088;2023-04-03T18:00:47;6.62;;;1.80;;
75971;SDS011;64651;47.540;19.088;2023-04-03T18:05:49;6.55;;;1.70;;
75971;SDS011;64651;47.540;19.088;2023-04-03T18:10:56;6.68;;;1.60;;
75971;SDS011;64651;47.540;19.088;2023-04-03T18:15:58;7.03;;;1.75;;
75971;SDS011;64651;47.540;19.088;2023-04-03T18:21:00;8.23;;;2.30;;
75971;SDS011;64651;47.540;19.088;2023-04-03T18:26:03;7.28;;;2.10;;
75971;SDS011;64651;47.540;19.088;2023-04-03T18:31:07;6.85;;;1.90;;
75971;SDS011;64651;47.540;19.088;2023-04-03T18:36:12;7.90;;;2.20;;
75971;SDS011;64651;47.540;19.088;2023-04-03T18:41:14;7.90;;;2.60;;
75971;SDS011;64651;47.540;19.088;2023-04-03T18:46:17;9.07;;;2.40;;
75971;SDS011;64651;47.540;19.088;2023-04-03T18:51:20;10.40;;;2.58;;
75971;SDS011;64651;47.540;19.088;2023-04-03T18:56:22;7.45;;;2.20;;
75971;SDS011;64651;47.540;19.088;2023-04-03T19:01:25;7.18;;;2.40;;
75971;SDS011;64651;47.540;19.088;2023-04-03T19:06:28;6.60;;;1.95;;
75971;SDS011;64651;47.540;19.088;2023-04-03T19:11:31;7.33;;;2.10;;
75971;SDS011;64651;47.540;19.088;2023-04-03T19:22:22;7.10;;;1.95;;
75971;SDS011;64651;47.540;19.088;2023-04-03T19:27:25;7.80;;;2.15;;
75971;SDS011;64651;47.540;19.088;2023-04-03T19:37:48;7.30;;;2.20;;
75971;SDS011;64651;47.540;19.088;2023-04-03T19:42:51;7.30;;;2.00;;
75971;SDS011;64651;47.540;19.088;2023-04-03T19:47:54;7.00;;;1.90;;
75971;SDS011;64651;47.540;19.088;2023-04-03T19:53:03;7.93;;;2.40;;
75971;SDS011;64651;47.540;19.088;2023-04-03T19:58:07;8.98;;;2.00;;
75971;SDS011;64651;47.540;19.088;2023-04-03T20:03:09;9.93;;;2.70;;
75971;SDS011;64651;47.540;19.088;2023-04-03T20:08:11;10.63;;;3.40;;
75971;SDS011;64651;47.540;19.088;2023-04-03T20:13:14;9.80;;;3.62;;
75971;SDS011;64651;47.540;19.088;2023-04-03T20:18:17;11.30;;;3.78;;
75971;SDS011;64651;47.540;19.088;2023-04-03T20:23:21;8.80;;;2.67;;
75971;SDS011;64651;47.540;19.088;2023-04-03T20:28:23;8.80;;;2.30;;
75971;SDS011;64651;47.540;19.088;2023-04-03T20:33:26;10.52;;;3.08;;
75971;SDS011;64651;47.540;19.088;2023-04-03T20:38:29;12.32;;;5.07;;
75971;SDS011;64651;47.540;19.088;2023-04-03T20:43:31;7.90;;;2.35;;
75971;SDS011;64651;47.540;19.088;2023-04-03T20:48:34;9.13;;;2.17;;
75971;SDS011;64651;47.540;19.088;2023-04-03T20:53:37;7.07;;;2.03;;
75971;SDS011;64651;47.540;19.088;2023-04-03T20:58:40;7.53;;;2.00;;
75971;SDS011;64651;47.540;19.088;2023-04-03T21:03:44;7.32;;;1.90;;
75971;SDS011;64651;47.540;19.088;2023-04-03T21:20:08;9.40;;;2.63;;
75971;SDS011;64651;47.540;19.088;2023-04-03T21:25:10;8.25;;;2.20;;
75971;SDS011;64651;47.540;19.088;2023-04-03T21:30:13;6.93;;;1.98;;
75971;SDS011;64651;47.540;19.088;2023-04-03T21:35:16;7.05;;;2.20;;
75971;SDS011;64651;47.540;19.088;2023-04-03T21:40:18;7.93;;;2.20;;
75971;SDS011;64651;47.540;19.088;2023-04-03T21:45:20;7.47;;;2.20;;
75971;SDS011;64651;47.540;19.088;2023-04-03T21:50:23;7.50;;;2.08;;
75971;SDS011;64651;47.540;19.088;2023-04-03T21:55:25;8.35;;;1.92;;
75971;SDS011;64651;47.540;19.088;2023-04-03T22:00:27;7.87;;;1.80;;
75971;SDS011;64651;47.540;19.088;2023-04-03T22:05:30;8.23;;;2.17;;
75971;SDS011;64651;47.540;19.088;2023-04-03T22:10:33;7.77;;;1.80;;
75971;SDS011;64651;47.540;19.088;2023-04-03T22:15:35;8.23;;;2.00;;
75971;SDS011;64651;47.540;19.088;2023-04-03T22:20:43;6.95;;;1.75;;
75971;SDS011;64651;47.540;19.088;2023-04-03T22:31:17;7.37;;;1.87;;
75971;SDS011;64651;47.540;19.088;2023-04-03T22:36:20;6.63;;;1.47;;
75971;SDS011;64651;47.540;19.088;2023-04-03T22:41:23;7.28;;;1.70;;
75971;SDS011;64651;47.540;19.088;2023-04-03T22:46:25;6.78;;;1.60;;
75971;SDS011;64651;47.540;19.088;2023-04-03T22:51:29;7.32;;;1.70;;
75971;SDS011;64651;47.540;19.088;2023-04-03T22:56:31;6.53;;;1.70;;
75971;SDS011;64651;47.540;19.088;2023-04-03T23:01:33;8.00;;;1.70;;
75971;SDS011;64651;47.540;19.088;2023-04-03T23:06:38;7.78;;;1.90;;
75971;SDS011;64651;47.540;19.088;2023-04-03T23:11:40;6.72;;;1.40;;
75971;SDS011;64651;47.540;19.088;2023-04-03T23:16:43;7.37;;;1.67;;
75971;SDS011;64651;47.540;19.088;2023-04-03T23:21:47;6.57;;;1.48;;
75971;SDS011;64651;47.540;19.088;2023-04-03T23:26:49;6.43;;;1.60;;
75971;SDS011;64651;47.540;19.088;2023-04-03T23:31:52;6.05;;;1.77;;
75971;SDS011;64651;47.540;19.088;2023-04-03T23:36:54;7.20;;;1.58;;
75971;SDS011;64651;47.540;19.088;2023-04-03T23:41:56;7.28;;;1.60;;
75971;SDS011;64651;47.540;19.088;2023-04-03T23:46:59;7.43;;;1.52;;
75971;SDS011;64651;47.540;19.088;2023-04-03T23:52:01;8.53;;;2.00;;
75971;SDS011;64651;47.540;19.088;2023-04-03T23:57:04;7.22;;;1.80;;
